Time;durP1;ratioP1;P1;durP2;ratioP2;P2;SDS_P1;SDS_P2;PMS_P1;PMS_P2;Temp;Humidity;BMP_temperature;BMP_pressure;BME280_temperature;BME280_humidity;BME280_pressure;Samples;Min_cycle;Max_cycle;Signal;HPM_P1;HPM_P2
2022/05/13 00:02:08;;;;;;;3.72;2.60;;;9.90;99.90;;;;;;4959616;28;89045;-35
2022/05/13 00:04:34;;;;;;;3.70;3.20;;;9.80;99.90;;;;;;4958712;28;88203;-36
2022/05/13 00:07:00;;;;;;;4.18;3.17;;;9.80;99.90;;;;;;4959087;28;89348;-36
2022/05/13 00:09:56;;;;;;;5.28;4.30;;;9.90;99.90;;;;;;4959321;28;90492;-33
2022/05/13 00:12:12;;;;;;;6.18;3.72;;;9.80;99.90;;;;;;4958686;28;90311;-36
2022/05/13 00:14:39;;;;;;;5.68;3.42;;;9.90;99.90;;;;;;4958745;28;89372;-36
2022/05/13 00:17:05;;;;;;;7.18;4.15;;;9.90;99.90;;;;;;4959032;28;90210;-34
2022/05/13 00:19:31;;;;;;;6.20;4.25;;;9.90;99.90;;;;;;4958817;28;90209;-33
2022/05/13 00:21:57;;;;;;;5.45;4.45;;;9.90;99.90;;;;;;4958980;28;89719;-35
2022/05/13 00:24:22;;;;;;;7.85;4.15;;;9.90;99.90;;;;;;4959280;28;89502;-36
2022/05/13 00:26:48;;;;;;;9.90;4.80;;;10.00;99.90;;;;;;4959007;28;89627;-39
2022/05/13 00:29:14;;;;;;;11.82;5.03;;;10.00;99.90;;;;;;4958684;28;90745;-35
2022/05/13 00:31:39;;;;;;;5.43;4.93;;;10.00;99.90;;;;;;4958361;28;89861;-32
2022/05/13 00:34:05;;;;;;;10.25;4.57;;;10.00;99.90;;;;;;4959280;28;90330;-38
2022/05/13 00:36:31;;;;;;;8.90;5.00;;;10.00;99.90;;;;;;4961324;28;88790;-38
2022/05/13 00:38:56;;;;;;;6.72;5.30;;;10.10;99.90;;;;;;4961884;28;90397;-37
2022/05/13 00:41:22;;;;;;;6.00;4.38;;;10.10;99.90;;;;;;4960930;28;89450;-36
2022/05/13 00:43:51;;;;;;;8.60;5.68;;;10.10;99.90;;;;;;4982295;22;89704;-36
2022/05/13 00:46:18;;;;;;;13.63;5.15;;;10.10;99.90;;;;;;4942584;28;89174;-36
2022/05/13 00:48:45;;;;;;;5.50;4.97;;;10.10;99.90;;;;;;4925045;28;90067;-35
2022/05/13 00:51:14;;;;;;;8.15;4.80;;;10.10;99.90;;;;;;4942475;28;90559;-34
2022/05/13 00:53:40;;;;;;;7.05;5.50;;;10.10;99.90;;;;;;4941495;28;90926;-35
2022/05/13 00:56:06;;;;;;;12.40;5.32;;;10.10;99.90;;;;;;4942293;28;89782;-36
2022/05/13 00:58:34;;;;;;;8.40;4.63;;;10.20;99.90;;;;;;4942387;28;90367;-34
2022/05/13 01:00:59;;;;;;;9.68;5.68;;;10.20;99.90;;;;;;4942265;28;89646;-36
2022/05/13 01:03:25;;;;;;;7.78;4.57;;;10.20;99.90;;;;;;4941799;28;92120;-37
2022/05/13 01:06:00;;;;;;;5.53;4.63;;;10.30;99.90;;;;;;4941463;28;88645;-35
2022/05/13 01:08:27;;;;;;;6.07;4.97;;;10.40;99.90;;;;;;4941742;28;90335;-37
2022/05/13 01:10:55;;;;;;;7.15;5.47;;;10.40;99.90;;;;;;4941772;28;89553;-35
2022/05/13 01:13:23;;;;;;;8.63;5.55;;;10.40;99.90;;;;;;4942501;28;89832;-35
2022/05/13 01:15:51;;;;;;;;;;;10.50;99.90;;;;;;4942994;28;89727;-35
2022/05/13 01:18:35;;;;;;;5.63;5.13;;;10.50;99.90;;;;;;4943022;28;90010;-36
2022/05/13 01:21:02;;;;;;;5.80;5.03;;;10.50;99.90;;;;;;4942385;28;89269;-34
2022/05/13 01:23:34;;;;;;;6.68;5.03;;;10.60;99.90;;;;;;4942536;28;90738;-33
2022/05/13 01:26:06;;;;;;;12.35;5.38;;;10.60;99.90;;;;;;4942585;28;90430;-36
2022/05/13 01:28:41;;;;;;;4.93;4.05;;;10.70;99.90;;;;;;4941222;28;90223;-35
2022/05/13 01:31:11;;;;;;;5.57;4.50;;;10.70;99.90;;;;;;4941462;28;91234;-33
2022/05/13 01:33:38;;;;;;;5.88;4.65;;;10.70;99.90;;;;;;4941377;28;90601;-34
2022/05/13 01:36:06;;;;;;;7.53;3.88;;;10.80;99.90;;;;;;4941874;28;89496;-34
2022/05/13 01:38:35;;;;;;;5.23;4.03;;;10.80;99.90;;;;;;4941631;28;90408;-35
2022/05/13 01:41:02;;;;;;;4.80;4.30;;;10.80;99.90;;;;;;4940490;28;90501;-37
2022/05/13 01:43:28;;;;;;;8.77;4.65;;;10.80;99.90;;;;;;4940721;28;89674;-36
2022/05/13 01:45:54;;;;;;;5.63;4.07;;;10.90;99.90;;;;;;4941435;28;88687;-34
2022/05/13 01:48:20;;;;;;;4.45;4.05;;;10.90;99.90;;;;;;4940733;28;90261;-35
2022/05/13 01:50:46;;;;;;;7.25;4.53;;;10.90;99.90;;;;;;4941469;28;89917;-38
2022/05/13 01:53:12;;;;;;;6.53;4.50;;;10.90;99.90;;;;;;4940540;28;89430;-37
2022/05/13 01:55:42;;;;;;;5.05;3.65;;;10.90;99.90;;;;;;4940737;28;89423;-36
2022/05/13 01:58:12;;;;;;;6.90;4.32;;;10.90;99.90;;;;;;4941180;28;90048;-35
2022/05/13 02:00:37;;;;;;;5.43;4.53;;;11.00;99.90;;;;;;4941021;28;90074;-35
2022/05/13 02:05:47;;;;;;;9.52;3.83;;;11.00;99.90;;;;;;4941622;28;88918;-37
2022/05/13 02:08:13;;;;;;;4.78;4.05;;;11.00;99.90;;;;;;4940500;28;94869;-37
2022/05/13 02:10:38;;;;;;;10.20;4.50;;;11.00;99.90;;;;;;4922906;28;90953;-36
2022/05/13 02:13:04;;;;;;;7.65;4.43;;;11.00;99.90;;;;;;4941369;28;89622;-37
2022/05/13 02:15:30;;;;;;;8.35;4.40;;;11.10;99.90;;;;;;4941238;28;87724;-37
2022/05/13 02:17:56;;;;;;;9.18;4.07;;;11.00;99.90;;;;;;4940152;28;90441;-33
2022/05/13 02:20:21;;;;;;;4.70;3.88;;;11.00;99.90;;;;;;4940602;28;90579;-37
2022/05/13 02:22:47;;;;;;;9.05;4.82;;;11.00;99.90;;;;;;4940328;28;90619;-35
2022/05/13 02:25:13;;;;;;;10.40;4.75;;;11.00;99.90;;;;;;4941514;28;90337;-34
2022/05/13 02:27:39;;;;;;;6.80;4.25;;;11.00;99.90;;;;;;4940592;28;89659;-35
2022/05/13 02:30:06;;;;;;;7.25;3.80;;;11.00;99.90;;;;;;4941054;28;89624;-38
2022/05/13 02:32:31;;;;;;;4.85;4.32;;;11.00;99.90;;;;;;4940902;28;90320;-37
2022/05/13 02:34:57;;;;;;;6.97;3.75;;;11.00;99.90;;;;;;4940121;28;88154;-34
2022/05/13 02:37:23;;;;;;;10.45;3.92;;;11.00;99.90;;;;;;4940668;28;90229;-39
2022/05/13 02:39:48;;;;;;;8.73;4.38;;;11.00;99.90;;;;;;4940571;28;90055;-35
2022/05/13 02:42:14;;;;;;;10.55;4.28;;;10.90;99.90;;;;;;4940024;28;89438;-37
2022/05/13 02:44:40;;;;;;;4.32;3.95;;;11.00;99.90;;;;;;4922264;28;89261;-38
2022/05/13 02:47:06;;;;;;;6.10;3.97;;;11.00;99.90;;;;;;4927001;28;89530;-35
2022/05/13 02:49:32;;;;;;;8.05;4.05;;;10.90;99.90;;;;;;4921151;28;87965;-39
2022/05/13 02:51:57;;;;;;;9.40;4.22;;;10.90;99.90;;;;;;4920614;28;89421;-36
2022/05/13 02:54:23;;;;;;;7.78;4.07;;;10.90;99.90;;;;;;4921106;28;89267;-38
2022/05/13 02:56:48;;;;;;;11.48;4.30;;;10.90;99.90;;;;;;4920566;28;90119;-33
2022/05/13 02:59:14;;;;;;;8.18;3.95;;;10.90;99.90;;;;;;4920345;28;89721;-34
2022/05/13 03:01:40;;;;;;;7.25;4.13;;;10.90;99.90;;;;;;4920937;28;89941;-35
2022/05/13 03:04:06;;;;;;;8.23;4.25;;;10.90;99.90;;;;;;4920648;28;88770;-36
2022/05/13 03:06:32;;;;;;;3.75;3.28;;;10.80;99.90;;;;;;4920825;28;90471;-38
2022/05/13 03:08:58;;;;;;;4.35;3.83;;;10.80;99.90;;;;;;4920363;28;91013;-36
2022/05/13 03:11:23;;;;;;;9.80;4.97;;;10.80;99.90;;;;;;4920300;28;90597;-33
2022/05/13 03:13:50;;;;;;;6.00;4.78;;;10.70;99.90;;;;;;4921018;28;89073;-34
2022/05/13 03:16:24;;;;;;;10.25;4.78;;;10.70;99.90;;;;;;4920808;28;89998;-36
2022/05/13 03:18:55;;;;;;;6.38;4.72;;;10.60;99.90;;;;;;4920266;28;90618;-38
2022/05/13 03:21:22;;;;;;;6.75;4.50;;;10.60;99.90;;;;;;4920122;28;89905;-36
2022/05/13 03:23:48;;;;;;;8.48;4.85;;;10.60;99.90;;;;;;4920449;28;89082;-36
2022/05/13 03:26:17;;;;;;;5.07;3.65;;;10.60;99.90;;;;;;4920728;28;90392;-35
2022/05/13 03:28:42;;;;;;;8.45;4.70;;;10.60;99.90;;;;;;4920356;28;91401;-36
2022/05/13 03:31:08;;;;;;;11.00;4.68;;;10.60;99.90;;;;;;4921151;28;89420;-33
2022/05/13 03:33:34;;;;;;;7.53;4.68;;;10.70;99.90;;;;;;4902217;28;90831;-36
2022/05/13 03:36:00;;;;;;;7.45;4.55;;;10.60;99.90;;;;;;4919603;28;90447;-38
2022/05/13 03:38:26;;;;;;;5.78;4.32;;;10.60;99.90;;;;;;4919881;28;90006;-36
2022/05/13 03:40:51;;;;;;;6.15;4.25;;;10.60;99.90;;;;;;4920345;28;89832;-35
2022/05/13 03:43:18;;;;;;;8.07;5.43;;;10.60;99.90;;;;;;4920095;28;89330;-38
2022/05/13 03:45:44;;;;;;;10.23;4.72;;;10.60;99.90;;;;;;4919700;28;90625;-37
2022/05/13 03:48:10;;;;;;;9.52;4.40;;;10.60;99.90;;;;;;4919755;28;90668;-37
2022/05/13 03:50:38;;;;;;;6.50;3.50;;;10.60;99.90;;;;;;4920697;28;89911;-38
2022/05/13 03:53:04;;;;;;;20.17;5.03;;;10.70;99.90;;;;;;4920809;28;89086;-34
2022/05/13 03:55:31;;;;;;;5.97;4.70;;;10.60;99.90;;;;;;4919509;28;90500;-35
2022/05/13 03:57:57;;;;;;;4.45;4.05;;;10.60;99.90;;;;;;4919863;28;90634;-39
2022/05/13 04:00:23;;;;;;;6.13;4.28;;;10.70;99.90;;;;;;4919926;28;90505;-35
2022/05/13 04:02:49;;;;;;;7.68;4.22;;;10.70;99.90;;;;;;4919730;28;90424;-35
2022/05/13 04:10:44;;;;;;;11.00;4.88;;;10.70;99.90;;;;;;4921088;28;88893;-35
2022/05/13 04:16:06;;;;;;;9.10;4.68;;;10.70;99.90;;;;;;4922793;28;90370;-34
2022/05/13 04:18:46;;;;;;;9.18;4.13;;;10.70;99.90;;;;;;4923230;28;89225;-36
2022/05/13 04:21:13;;;;;;;10.60;4.85;;;10.80;99.90;;;;;;4922846;28;89035;-34
2022/05/13 04:23:42;;;;;;;5.75;4.25;;;10.80;99.90;;;;;;4922684;28;89284;-34
2022/05/13 04:26:12;;;;;;;7.47;4.10;;;10.80;99.90;;;;;;4923221;28;90658;-36
2022/05/13 04:28:41;;;;;;;5.38;3.38;;;10.80;99.90;;;;;;4923248;28;89560;-37
2022/05/13 04:31:08;;;;;;;6.57;4.28;;;10.80;99.90;;;;;;4923419;28;88558;-35
2022/05/13 04:33:33;;;;;;;6.35;3.70;;;10.80;99.90;;;;;;4922963;28;87998;-37
2022/05/13 04:35:59;;;;;;;18.35;4.93;;;10.80;99.90;;;;;;4922539;28;90399;-35
2022/05/13 04:38:24;;;;;;;10.90;4.30;;;10.90;99.90;;;;;;4923021;28;89545;-33
2022/05/13 04:40:50;;;;;;;7.85;4.72;;;10.90;99.90;;;;;;4922964;28;89981;-36
2022/05/13 04:43:15;;;;;;;9.48;5.03;;;10.90;99.90;;;;;;4922959;28;88148;-35
2022/05/13 04:45:42;;;;;;;10.88;3.83;;;10.90;99.90;;;;;;4922440;28;89845;-37
2022/05/13 04:48:16;;;;;;;15.13;5.03;;;10.90;99.90;;;;;;4921797;28;90889;-37
2022/05/13 04:50:53;;;;;;;11.57;4.85;;;10.90;99.90;;;;;;4922537;28;90906;-35
2022/05/13 04:53:25;;;;;;;10.23;3.55;;;11.00;99.90;;;;;;4923210;28;88911;-34
2022/05/13 04:55:52;;;;;;;12.02;3.78;;;11.00;99.90;;;;;;4922379;28;89169;-35
2022/05/13 04:58:18;;;;;;;7.88;4.60;;;11.00;99.90;;;;;;4922106;28;89951;-35
2022/05/13 05:00:45;;;;;;;9.63;3.95;;;11.00;99.90;;;;;;4922737;28;89605;-34
2022/05/13 05:03:11;;;;;;;12.85;4.55;;;11.00;99.90;;;;;;4922865;28;89410;-36
2022/05/13 05:05:36;;;;;;;7.18;4.20;;;11.00;99.90;;;;;;4922201;28;89229;-34
2022/05/13 05:08:02;;;;;;;7.60;4.40;;;11.10;99.90;;;;;;4922645;28;89709;-38
2022/05/13 05:10:28;;;;;;;6.25;4.25;;;11.10;99.90;;;;;;4922507;28;89554;-38
2022/05/13 05:12:55;;;;;;;12.57;5.53;;;11.10;99.90;;;;;;4922090;28;88256;-35
2022/05/13 05:15:21;;;;;;;15.95;5.65;;;11.10;99.90;;;;;;4922558;28;89310;-34
2022/05/13 05:17:47;;;;;;;8.57;3.97;;;11.10;99.90;;;;;;4921633;28;90025;-36
2022/05/13 05:20:14;;;;;;;9.63;4.85;;;11.20;99.90;;;;;;4922064;28;89734;-36
2022/05/13 05:22:43;;;;;;;8.90;4.00;;;11.20;99.90;;;;;;4922211;28;89803;-34
2022/05/13 05:25:10;;;;;;;13.98;5.40;;;11.20;99.90;;;;;;4922517;28;89904;-38
2022/05/13 05:27:36;;;;;;;6.70;4.85;;;11.20;99.90;;;;;;4921592;28;89004;-35
2022/05/13 05:30:04;;;;;;;11.02;4.65;;;11.20;99.90;;;;;;4922340;28;89345;-37
2022/05/13 05:32:30;;;;;;;14.25;4.72;;;11.20;99.90;;;;;;4921862;28;89657;-36
2022/05/13 05:34:56;;;;;;;12.70;4.97;;;11.20;99.90;;;;;;4921282;28;90207;-38
2022/05/13 05:37:21;;;;;;;9.10;4.40;;;11.30;99.90;;;;;;4921773;28;90353;-35
2022/05/13 05:39:47;;;;;;;9.85;5.18;;;11.30;99.90;;;;;;4921769;28;89829;-36
2022/05/13 05:42:12;;;;;;;10.30;5.40;;;11.30;99.90;;;;;;4922487;28;89383;-36
2022/05/13 05:44:38;;;;;;;10.85;5.30;;;11.40;99.90;;;;;;4921187;28;91036;-35
2022/05/13 05:47:04;;;;;;;11.30;5.40;;;11.30;99.90;;;;;;4937927;28;90239;-35
2022/05/13 05:49:30;;;;;;;16.75;6.07;;;11.40;99.90;;;;;;4939248;28;89911;-34
2022/05/13 05:51:56;;;;;;;13.20;5.82;;;11.40;99.90;;;;;;4938991;28;89995;-35
2022/05/13 05:57:15;;;;;;;12.52;5.40;;;11.60;99.90;;;;;;4938877;28;89907;-36
2022/05/13 05:59:46;;;;;;;21.00;6.28;;;11.60;99.90;;;;;;4938159;28;89223;-36
2022/05/13 06:02:12;;;;;;;16.20;6.07;;;11.60;99.90;;;;;;4938309;28;89954;-35
2022/05/13 06:04:39;;;;;;;13.27;5.72;;;11.80;99.90;;;;;;4938422;28;89999;-35
2022/05/13 06:07:07;;;;;;;12.60;5.93;;;12.00;99.90;;;;;;4920625;28;90537;-34
2022/05/13 06:09:36;;;;;;;10.80;6.05;;;12.40;99.90;;;;;;4938150;28;89909;-36
2022/05/13 06:12:03;;;;;;;11.93;5.78;;;12.70;99.90;;;;;;4939182;28;89325;-37
2022/05/13 06:14:29;;;;;;;12.57;6.22;;;12.80;99.90;;;;;;4939071;28;91020;-35
2022/05/13 06:16:55;;;;;;;10.85;6.57;;;13.00;99.90;;;;;;4939107;28;90294;-34
2022/05/13 06:19:21;;;;;;;10.63;6.28;;;13.20;99.90;;;;;;4938856;28;89590;-38
2022/05/13 06:21:46;;;;;;;11.48;5.68;;;13.30;99.90;;;;;;4939501;28;89805;-35
2022/05/13 06:24:12;;;;;;;13.75;5.22;;;13.40;99.90;;;;;;4939054;28;90136;-35
2022/05/13 06:26:38;;;;;;;13.93;6.00;;;13.50;99.90;;;;;;4937570;28;90670;-37
2022/05/13 06:29:05;;;;;;;9.02;5.30;;;13.70;99.90;;;;;;4938547;28;90397;-36
2022/05/13 06:31:31;;;;;;;14.80;6.63;;;13.80;99.90;;;;;;4938623;28;88063;-37
2022/05/13 06:33:57;;;;;;;13.90;6.10;;;13.80;99.90;;;;;;4937910;28;90403;-36
2022/05/13 06:36:23;;;;;;;13.70;6.32;;;13.80;99.90;;;;;;4939230;28;89844;-35
2022/05/13 06:38:48;;;;;;;12.25;5.68;;;13.80;99.90;;;;;;4937708;28;89666;-34
2022/05/13 06:41:14;;;;;;;14.15;5.72;;;13.90;99.90;;;;;;4939324;28;90370;-36
2022/05/13 06:43:40;;;;;;;11.55;5.88;;;13.90;99.90;;;;;;4937396;28;90598;-34
2022/05/13 06:46:06;;;;;;;12.70;6.07;;;13.90;99.90;;;;;;4938619;28;90011;-39
2022/05/13 06:48:31;;;;;;;13.02;5.55;;;14.00;99.90;;;;;;4938833;28;89699;-38
2022/05/13 06:50:57;;;;;;;12.13;5.75;;;14.10;99.90;;;;;;4937390;28;90025;-37
2022/05/13 06:53:23;;;;;;;8.40;5.45;;;14.10;99.90;;;;;;4938785;28;90181;-34
2022/05/13 06:55:50;;;;;;;15.32;6.82;;;14.10;99.90;;;;;;4937178;28;91067;-36
2022/05/13 06:58:16;;;;;;;19.20;6.10;;;14.00;99.90;;;;;;4938320;28;89132;-36
2022/05/13 07:00:44;;;;;;;16.27;5.70;;;14.10;99.90;;;;;;4938682;28;89841;-37
2022/05/13 07:03:14;;;;;;;13.40;5.82;;;14.20;99.90;;;;;;4938058;28;89549;-37
2022/05/13 07:05:40;;;;;;;9.73;5.75;;;14.10;99.90;;;;;;4936834;28;89655;-36
2022/05/13 07:08:06;;;;;;;13.05;4.72;;;14.20;99.90;;;;;;4937994;28;89984;-37
2022/05/13 07:10:32;;;;;;;12.82;5.15;;;14.50;99.90;;;;;;4938733;28;88537;-37
2022/05/13 07:12:57;;;;;;;11.63;4.57;;;14.60;99.90;;;;;;4937657;28;91525;-37
2022/05/13 07:15:23;;;;;;;12.73;3.90;;;14.60;99.90;;;;;;4937271;28;90064;-35
2022/05/13 07:17:49;;;;;;;9.75;4.45;;;14.60;99.90;;;;;;4937255;28;90907;-34
2022/05/13 07:20:15;;;;;;;5.90;4.20;;;14.70;99.90;;;;;;4938114;28;89998;-37
2022/05/13 07:22:41;;;;;;;5.45;3.55;;;14.70;99.90;;;;;;4938211;28;90320;-39
2022/05/13 07:25:07;;;;;;;11.63;4.30;;;14.70;99.90;;;;;;4937378;28;90305;-37
2022/05/13 07:27:33;;;;;;;5.38;4.18;;;14.70;99.90;;;;;;4937263;28;90151;-36
2022/05/13 07:29:59;;;;;;;8.45;3.03;;;14.70;99.90;;;;;;4937887;28;88252;-35
2022/05/13 07:32:24;;;;;;;7.43;3.03;;;14.50;99.90;;;;;;4938343;28;89178;-35
2022/05/13 07:34:50;;;;;;;4.97;2.30;;;14.60;99.90;;;;;;4937929;28;89864;-37
2022/05/13 07:37:16;;;;;;;12.98;2.83;;;14.70;99.90;;;;;;4937417;28;89653;-33
2022/05/13 07:42:25;;;;;;;8.23;2.88;;;15.00;99.90;;;;;;4937274;28;90380;-38
2022/05/13 07:44:51;;;;;;;7.25;2.58;;;15.40;99.90;;;;;;4937980;28;89730;-38
2022/05/13 07:47:19;;;;;;;5.00;2.28;;;15.70;99.90;;;;;;4941321;28;89494;-35
2022/05/13 07:49:45;;;;;;;7.00;2.53;;;15.50;99.90;;;;;;4921660;28;89635;-33
2022/05/13 07:52:11;;;;;;;9.32;3.42;;;15.30;99.90;;;;;;4921756;28;90708;-35
2022/05/13 07:54:36;;;;;;;4.15;2.13;;;15.20;99.90;;;;;;4920258;28;91432;-38
2022/05/13 07:57:03;;;;;;;5.93;2.67;;;15.00;99.90;;;;;;4923919;28;89672;-35
2022/05/13 07:59:32;;;;;;;10.35;2.97;;;15.30;99.90;;;;;;4922356;28;88529;-35
2022/05/13 08:01:58;;;;;;;5.47;3.03;;;15.50;99.90;;;;;;4920986;28;90381;-35
2022/05/13 08:04:24;;;;;;;5.57;3.10;;;15.40;99.90;;;;;;4922915;28;90477;-35
2022/05/13 08:06:50;;;;;;;20.05;4.25;;;15.60;99.90;;;;;;4926607;28;90564;-38
2022/05/13 08:09:16;;;;;;;5.22;2.63;;;15.90;99.90;;;;;;4928327;28;90326;-35
2022/05/13 08:11:43;;;;;;;3.75;3.38;;;16.40;99.90;;;;;;4920396;28;90318;-39
2022/05/13 08:14:09;;;;;;;9.18;3.30;;;16.40;99.90;;;;;;4920858;28;89981;-34
2022/05/13 08:16:36;;;;;;;8.60;3.10;;;16.70;99.90;;;;;;4921065;28;89501;-36
2022/05/13 08:19:02;;;;;;;4.85;3.15;;;16.50;99.90;;;;;;4920490;28;89435;-34
2022/05/13 08:21:29;;;;;;;7.22;2.42;;;16.90;99.90;;;;;;4921001;28;90513;-38
2022/05/13 08:23:54;;;;;;;4.95;3.38;;;16.50;99.90;;;;;;4920050;28;89774;-35
2022/05/13 08:26:20;;;;;;;6.85;2.80;;;16.20;99.90;;;;;;4920357;28;89884;-36
2022/05/13 08:28:46;;;;;;;6.10;2.17;;;16.00;99.90;;;;;;4920577;28;89375;-36
2022/05/13 08:31:13;;;;;;;3.85;1.98;;;15.80;99.90;;;;;;4919748;28;90857;-36
2022/05/13 08:33:40;;;;;;;9.17;2.10;;;15.70;99.90;;;;;;4919857;28;90757;-37
2022/05/13 08:36:06;;;;;;;3.83;2.53;;;15.70;99.90;;;;;;4920095;28;89427;-35
2022/05/13 08:38:37;;;;;;;3.90;2.10;;;15.90;99.90;;;;;;4919957;28;89794;-38
2022/05/13 08:41:09;;;;;;;8.07;2.80;;;15.90;99.90;;;;;;4921052;28;90907;-33
2022/05/13 08:43:39;;;;;;;9.85;2.80;;;15.90;99.90;;;;;;4919536;28;89717;-40
2022/05/13 08:46:33;;;;;;;8.45;2.63;;;15.80;99.90;;;;;;4920173;28;89938;-37
2022/05/13 08:49:20;;;;;;;9.32;2.65;;;15.50;99.90;;;;;;4919202;28;87630;-35
2022/05/13 08:52:02;;;;;;;12.00;3.30;;;15.50;99.90;;;;;;4919582;28;90767;-37
2022/05/13 08:54:36;;;;;;;4.95;2.55;;;15.40;99.90;;;;;;4920230;28;90934;-32
2022/05/13 08:57:09;;;;;;;12.65;3.05;;;15.20;99.90;;;;;;4919754;28;90595;-38
2022/05/13 08:59:53;;;;;;;6.28;2.38;;;15.20;99.90;;;;;;4919700;28;88845;-39
2022/05/13 09:02:30;;;;;;;9.98;2.30;;;15.20;99.90;;;;;;4920158;28;91293;-36
2022/05/13 09:05:07;;;;;;;7.93;2.60;;;15.20;99.90;;;;;;4939562;28;89564;-32
2022/05/13 09:07:33;;;;;;;3.80;2.28;;;15.20;99.90;;;;;;4939238;28;89821;-35
2022/05/13 09:10:01;;;;;;;2.53;1.67;;;15.10;99.90;;;;;;4939669;28;89097;-33
2022/05/13 09:12:38;;;;;;;7.45;2.90;;;15.30;99.90;;;;;;4939676;28;90355;-37
2022/05/13 09:15:07;;;;;;;7.05;2.03;;;15.50;99.90;;;;;;4940167;28;90095;-37
2022/05/13 09:17:48;;;;;;;5.40;1.88;;;15.40;99.90;;;;;;4939925;28;90094;-35
2022/05/13 09:20:20;;;;;;;12.02;3.25;;;15.20;99.90;;;;;;4938608;28;90517;-38
2022/05/13 09:22:51;;;;;;;10.95;3.28;;;15.20;99.90;;;;;;4938837;28;90057;-33
2022/05/13 09:25:42;;;;;;;4.20;2.05;;;15.40;99.90;;;;;;4939420;28;90255;-36
2022/05/13 09:28:13;;;;;;;5.22;1.95;;;15.50;99.90;;;;;;4921893;28;88322;-36
2022/05/13 09:30:46;;;;;;;8.30;1.85;;;15.60;99.90;;;;;;4939397;28;88809;-38
2022/05/13 09:33:30;;;;;;;21.27;3.75;;;16.10;99.90;;;;;;4938173;28;90838;-34
2022/05/13 09:36:29;;;;;;;10.43;2.70;;;16.40;99.90;;;;;;4938868;28;89565;-38
2022/05/13 09:39:01;;;;;;;5.15;1.67;;;16.50;99.90;;;;;;4921190;28;88175;-37
2022/05/13 09:41:30;;;;;;;1.70;1.60;;;16.80;99.90;;;;;;4938989;28;88959;-34
2022/05/13 09:44:05;;;;;;;4.25;1.65;;;16.40;99.90;;;;;;4938089;28;90473;-37
2022/05/13 09:46:34;;;;;;;5.47;1.70;;;16.80;99.90;;;;;;4939096;28;91482;-35
2022/05/13 09:49:24;;;;;;;3.63;2.50;;;16.80;99.90;;;;;;4939212;28;90529;-34
2022/05/13 09:51:59;;;;;;;3.17;1.38;;;16.80;99.90;;;;;;4939531;28;89399;-34
2022/05/13 09:54:33;;;;;;;1.80;1.60;;;17.20;99.90;;;;;;4938614;28;89187;-35
2022/05/13 09:57:31;;;;;;;11.23;1.85;;;17.00;99.90;;;;;;4938448;28;89813;-35
2022/05/13 10:00:05;;;;;;;7.07;2.63;;;16.80;99.90;;;;;;4938515;28;89534;-36
2022/05/13 10:02:38;;;;;;;2.85;1.63;;;16.40;99.90;;;;;;4939095;28;89664;-34
2022/05/13 10:05:21;;;;;;;2.25;1.42;;;16.60;99.90;;;;;;4939481;28;90246;-37
2022/05/13 10:08:00;;;;;;;3.53;2.13;;;16.70;99.90;;;;;;4937247;28;89617;-39
2022/05/13 10:16:27;;;;;;;39.55;6.35;;;16.80;99.90;;;;;;4937509;28;90324;-36
2022/05/13 10:19:19;;;;;;;7.10;1.65;;;17.10;99.90;;;;;;4937854;28;90633;-37
2022/05/13 10:22:09;;;;;;;2.45;1.67;;;17.00;99.90;;;;;;4938838;28;90460;-35
2022/05/13 10:25:03;;;;;;;6.68;2.00;;;16.90;99.90;;;;;;4937447;28;89309;-37
2022/05/13 10:27:58;;;;;;;22.92;3.20;;;16.70;99.90;;;;;;4938409;28;90876;-34
2022/05/13 10:30:48;;;;;;;2.63;2.00;;;16.40;99.90;;;;;;4938548;28;89644;-34
2022/05/13 10:33:28;;;;;;;4.35;2.55;;;16.50;99.90;;;;;;4938895;28;89811;-37
2022/05/13 10:36:01;;;;;;;7.22;2.13;;;16.80;99.90;;;;;;4937830;28;89640;-35
2022/05/13 10:38:34;;;;;;;12.40;2.78;;;16.90;99.90;;;;;;4938392;28;90591;-38
2022/05/13 10:41:19;;;;;;;3.40;1.50;;;16.80;99.90;;;;;;4937131;28;90164;-38
2022/05/13 10:43:52;;;;;;;7.88;2.60;;;17.20;99.90;;;;;;4938429;28;90621;-38
2022/05/13 10:46:24;;;;;;;6.57;2.70;;;17.30;99.90;;;;;;4938288;28;88773;-35
2022/05/13 10:48:52;;;;;;;5.43;1.52;;;17.30;99.90;;;;;;4936615;28;90316;-34
2022/05/13 10:51:22;;;;;;;;;;;17.00;99.90;;;;;;4938516;28;89783;-35
2022/05/13 10:54:16;;;;;;;7.43;2.92;;;16.80;99.90;;;;;;4938646;28;89629;-38
2022/05/13 10:56:53;;;;;;;23.58;4.65;;;17.10;99.90;;;;;;4938161;28;88884;-34
2022/05/13 10:59:38;;;;;;;5.47;2.33;;;17.30;99.90;;;;;;4938387;28;88848;-35
2022/05/13 11:02:41;;;;;;;1.90;1.80;;;17.20;99.90;;;;;;4938159;28;91227;-35
2022/05/13 11:05:23;;;;;;;4.70;2.63;;;17.10;99.90;;;;;;4938045;28;89357;-37
2022/05/13 11:08:06;;;;;;;6.40;2.65;;;17.80;99.90;;;;;;4937156;28;89155;-38
2022/05/13 11:10:47;;;;;;;6.85;2.72;;;17.80;99.90;;;;;;4937849;28;89302;-35
2022/05/13 11:13:37;;;;;;;6.25;2.90;;;17.40;99.90;;;;;;4937833;28;90156;-38
2022/05/13 11:16:08;;;;;;;12.27;2.47;;;17.20;99.90;;;;;;4937520;28;89283;-36
2022/05/13 11:18:52;;;;;;;2.15;1.70;;;16.70;99.90;;;;;;4937444;28;89385;-39
2022/05/13 11:21:39;;;;;;;7.68;2.47;;;16.70;99.90;;;;;;4938076;28;90356;-37
2022/05/13 11:27:14;;;;;;;9.95;2.88;;;16.70;99.90;;;;;;4937719;28;90021;-36
2022/05/13 11:29:49;;;;;;;7.93;2.85;;;16.60;99.90;;;;;;4937640;28;88345;-34
2022/05/13 11:32:25;;;;;;;4.28;2.30;;;16.50;99.90;;;;;;4937451;28;90487;-36
2022/05/13 11:35:25;;;;;;;11.00;2.13;;;16.70;99.90;;;;;;4936839;28;90111;-35
2022/05/13 11:37:57;;;;;;;8.40;2.78;;;16.70;99.90;;;;;;4936458;28;91381;-34
2022/05/13 11:40:39;;;;;;;4.10;1.80;;;16.60;99.90;;;;;;4937759;28;89949;-34
2022/05/13 11:43:38;;;;;;;2.38;2.08;;;16.70;99.90;;;;;;4937768;28;90224;-33
2022/05/13 11:46:07;;;;;;;2.78;1.88;;;17.00;99.90;;;;;;4938057;28;90403;-36
2022/05/13 11:48:46;;;;;;;8.93;2.65;;;17.00;99.90;;;;;;4937285;28;89492;-36
2022/05/13 11:51:17;;;;;;;1.52;1.42;;;17.00;99.90;;;;;;4937515;28;89455;-35
2022/05/13 11:54:08;;;;;;;2.85;1.88;;;17.00;99.90;;;;;;4937897;28;90370;-37
2022/05/13 11:56:36;;;;;;;6.45;1.83;;;16.90;99.90;;;;;;4912684;28;90348;-37
2022/05/13 11:59:31;;;;;;;13.05;2.47;;;16.80;99.90;;;;;;4936935;28;89782;-41
2022/05/13 12:02:12;;;;;;;1.73;1.52;;;16.70;99.90;;;;;;4936780;28;89269;-35
2022/05/13 12:04:59;;;;;;;3.58;2.28;;;16.80;99.90;;;;;;4937404;28;90445;-37
2022/05/13 12:07:27;;;;;;;;;;;16.90;99.90;;;;;;4937373;28;90340;-36
2022/05/13 12:09:54;;;;;;;2.10;2.00;;;17.00;99.90;;;;;;4938149;28;89166;-35
2022/05/13 12:12:49;;;;;;;7.35;1.80;;;17.10;99.90;;;;;;4937171;28;88767;-38
2022/05/13 12:15:41;;;;;;;3.10;1.33;;;17.00;99.90;;;;;;4937092;28;90228;-41
2022/05/13 12:18:27;;;;;;;7.13;2.70;;;17.00;99.90;;;;;;4936816;28;89817;-37
2022/05/13 12:21:45;;;;;;;7.03;2.60;;;16.90;99.90;;;;;;4936900;28;90123;-37
2022/05/13 12:24:11;;;;;;;2.95;1.92;;;17.20;99.90;;;;;;4902990;28;88989;-35
2022/05/13 12:26:51;;;;;;;5.75;3.08;;;17.20;99.90;;;;;;4936764;28;90380;-39
2022/05/13 12:29:43;;;;;;;19.92;5.07;;;17.40;99.90;;;;;;4935663;28;91177;-36
2022/05/13 12:32:21;;;;;;;7.10;3.58;;;17.40;99.90;;;;;;4938628;28;90512;-35
2022/05/13 12:37:45;;;;;;;3.50;3.20;;;17.20;99.90;;;;;;4939297;28;90745;-34
2022/05/13 12:40:15;;;;;;;8.70;3.20;;;17.40;96.90;;;;;;4939841;28;89761;-39
2022/05/13 12:42:51;;;;;;;8.18;3.05;;;17.30;99.90;;;;;;4974340;22;89024;-34
2022/05/13 12:45:28;;;;;;;11.30;3.60;;;17.30;99.90;;;;;;4979467;28;89837;-38
2022/05/13 12:48:08;;;;;;;5.00;3.28;;;17.40;98.70;;;;;;4979045;28;90627;-37
2022/05/13 12:51:13;;;;;;;5.32;3.30;;;17.10;97.50;;;;;;4980085;28;89783;-33
2022/05/13 12:53:56;;;;;;;7.57;3.38;;;17.40;99.90;;;;;;4978548;28;89581;-34
2022/05/13 12:56:38;;;;;;;8.38;3.55;;;17.30;99.80;;;;;;4978984;28;90989;-35
2022/05/13 12:59:26;;;;;;;6.90;3.15;;;17.70;99.90;;;;;;4978188;28;89319;-33
2022/05/13 13:01:53;;;;;;;;;;;18.00;99.90;;;;;;4979399;28;88546;-35
2022/05/13 13:04:25;;;;;;;8.18;2.63;;;17.70;97.60;;;;;;4980922;28;90142;-39
2022/05/13 13:06:52;;;;;;;3.88;2.22;;;18.10;96.90;;;;;;4978834;28;88838;-35
2022/05/13 13:09:35;;;;;;;14.57;3.28;;;17.80;89.50;;;;;;4979308;28;91238;-37
2022/05/13 13:12:18;;;;;;;11.95;4.22;;;17.80;90.00;;;;;;4979074;28;89840;-36
2022/05/13 13:15:08;;;;;;;6.72;2.10;;;17.50;87.00;;;;;;4979587;28;88555;-38
2022/05/13 13:17:44;;;;;;;2.50;2.30;;;17.50;93.50;;;;;;4978744;28;89936;-38
2022/05/13 13:20:12;;;;;;;5.38;2.63;;;17.70;90.00;;;;;;4978735;28;91864;-37
2022/05/13 13:22:40;;;;;;;;;;;17.60;93.10;;;;;;4977643;28;91955;-38
2022/05/13 13:25:24;;;;;;;19.50;3.25;;;17.90;92.40;;;;;;4980192;28;89963;-35
2022/05/13 13:28:02;;;;;;;5.05;2.40;;;17.70;81.90;;;;;;4978448;28;89160;-38
2022/05/13 13:30:30;;;;;;;3.75;2.33;;;18.00;84.60;;;;;;4979193;28;89315;-39
2022/05/13 13:32:56;;;;;;;15.23;2.92;;;18.30;82.40;;;;;;4978438;28;89577;-34
2022/05/13 13:35:34;;;;;;;9.05;2.70;;;18.10;71.60;;;;;;4978241;28;89615;-38